sensor_id;sensor_type;location;lat;lon;timestamp;pressure;altitude;pressure_sealevel;temperature;humidity
74329;BME280;62749;51.982;5.916;2023-06-05T00:00:04;102079.56;;;13.91;68.02
74329;BME280;62749;51.982;5.916;2023-06-05T00:02:35;102086.66;;;13.91;68.38
74329;BME280;62749;51.982;5.916;2023-06-05T00:05:05;102093.31;;;13.77;68.33
74329;BME280;62749;51.982;5.916;2023-06-05T00:07:36;102092.22;;;13.83;68.45
74329;BME280;62749;51.982;5.916;2023-06-05T00:10:09;102088.41;;;13.67;68.66
74329;BME280;62749;51.982;5.916;2023-06-05T00:12:39;102086.91;;;13.58;69.12
74329;BME280;62749;51.982;5.916;2023-06-05T00:15:10;102099.97;;;13.64;69.42
74329;BME280;62749;51.982;5.916;2023-06-05T00:17:39;102088.75;;;13.56;69.58
74329;BME280;62749;51.982;5.916;2023-06-05T00:20:09;102090.59;;;13.54;69.74
74329;BME280;62749;51.982;5.916;2023-06-05T00:22:38;102093.06;;;13.60;69.35
74329;BME280;62749;51.982;5.916;2023-06-05T00:25:13;102085.09;;;13.60;69.72
74329;BME280;62749;51.982;5.916;2023-06-05T00:27:42;102095.56;;;13.63;69.59
74329;BME280;62749;51.982;5.916;2023-06-05T00:30:13;102093.06;;;13.60;69.67
74329;BME280;62749;51.982;5.916;2023-06-05T00:32:42;102094.66;;;13.64;69.75
74329;BME280;62749;51.982;5.916;2023-06-05T00:35:11;102091.97;;;13.65;69.34
74329;BME280;62749;51.982;5.916;2023-06-05T00:37:41;102095.53;;;13.64;69.51
74329;BME280;62749;51.982;5.916;2023-06-05T00:40:15;102086.59;;;13.40;70.09
74329;BME280;62749;51.982;5.916;2023-06-05T00:42:45;102082.66;;;13.25;70.71
74329;BME280;62749;51.982;5.916;2023-06-05T00:45:14;102070.63;;;13.13;71.18
74329;BME280;62749;51.982;5.916;2023-06-05T00:47:43;102081.50;;;13.32;70.91
74329;BME280;62749;51.982;5.916;2023-06-05T00:50:14;102079.69;;;13.34;70.51
74329;BME280;62749;51.982;5.916;2023-06-05T00:52:48;102082.91;;;13.17;71.24
74329;BME280;62749;51.982;5.916;2023-06-05T00:55:21;102081.66;;;13.29;71.01
74329;BME280;62749;51.982;5.916;2023-06-05T00:57:51;102086.88;;;13.31;70.90
74329;BME280;62749;51.982;5.916;2023-06-05T01:00:21;102086.16;;;13.26;71.10
74329;BME280;62749;51.982;5.916;2023-06-05T01:02:51;102086.63;;;13.12;71.56
74329;BME280;62749;51.982;5.916;2023-06-05T01:05:24;102093.81;;;13.08;71.59
74329;BME280;62749;51.982;5.916;2023-06-05T01:07:55;102083.09;;;13.11;71.82
74329;BME280;62749;51.982;5.916;2023-06-05T01:10:27;102089.66;;;12.99;71.94
74329;BME280;62749;51.982;5.916;2023-06-05T01:13:04;102098.44;;;13.01;72.34
74329;BME280;62749;51.982;5.916;2023-06-05T01:15:38;102087.00;;;12.99;72.23
74329;BME280;62749;51.982;5.916;2023-06-05T01:18:09;102083.53;;;12.97;72.27
74329;BME280;62749;51.982;5.916;2023-06-05T01:20:39;102086.34;;;12.93;72.51
74329;BME280;62749;51.982;5.916;2023-06-05T01:23:11;102078.38;;;12.93;72.28
74329;BME280;62749;51.982;5.916;2023-06-05T01:25:41;102074.72;;;12.97;72.44
74329;BME280;62749;51.982;5.916;2023-06-05T01:28:16;102074.97;;;12.89;72.44
74329;BME280;62749;51.982;5.916;2023-06-05T01:30:54;102072.69;;;13.05;72.19
74329;BME280;62749;51.982;5.916;2023-06-05T01:33:31;102069.41;;;12.97;72.38
74329;BME280;62749;51.982;5.916;2023-06-05T01:36:10;102077.69;;;12.86;72.64
74329;BME280;62749;51.982;5.916;2023-06-05T01:38:43;102075.34;;;12.77;73.13
74329;BME280;62749;51.982;5.916;2023-06-05T01:41:15;102064.75;;;12.75;73.54
74329;BME280;62749;51.982;5.916;2023-06-05T01:43:46;102066.34;;;12.82;73.00
74329;BME280;62749;51.982;5.916;2023-06-05T01:46:18;102068.09;;;12.82;73.07
74329;BME280;62749;51.982;5.916;2023-06-05T01:48:48;102061.94;;;12.81;73.01
74329;BME280;62749;51.982;5.916;2023-06-05T01:51:20;102066.78;;;12.67;73.36
74329;BME280;62749;51.982;5.916;2023-06-05T01:53:52;102062.25;;;12.70;73.81
74329;BME280;62749;51.982;5.916;2023-06-05T01:56:22;102063.03;;;12.74;73.61
74329;BME280;62749;51.982;5.916;2023-06-05T01:58:51;102060.34;;;12.76;73.46
74329;BME280;62749;51.982;5.916;2023-06-05T02:01:22;102059.00;;;12.62;73.73
74329;BME280;62749;51.982;5.916;2023-06-05T02:03:51;102060.03;;;12.56;74.32
74329;BME280;62749;51.982;5.916;2023-06-05T02:06:23;102059.84;;;12.63;74.06
74329;BME280;62749;51.982;5.916;2023-06-05T02:08:55;102053.09;;;12.52;74.12
74329;BME280;62749;51.982;5.916;2023-06-05T02:11:25;102051.25;;;12.24;75.09
74329;BME280;62749;51.982;5.916;2023-06-05T02:13:54;102057.03;;;12.39;74.97
74329;BME280;62749;51.982;5.916;2023-06-05T02:16:26;102061.50;;;12.37;74.93
74329;BME280;62749;51.982;5.916;2023-06-05T02:18:55;102055.13;;;12.44;74.70
74329;BME280;62749;51.982;5.916;2023-06-05T02:21:30;102051.63;;;12.42;74.23
74329;BME280;62749;51.982;5.916;2023-06-05T02:24:04;102055.81;;;12.49;74.69
74329;BME280;62749;51.982;5.916;2023-06-05T02:26:34;102053.47;;;12.40;74.64
74329;BME280;62749;51.982;5.916;2023-06-05T02:29:03;102057.75;;;12.44;74.67
74329;BME280;62749;51.982;5.916;2023-06-05T02:31:32;102055.22;;;12.39;74.64
74329;BME280;62749;51.982;5.916;2023-06-05T02:34:03;102048.22;;;12.38;74.82
74329;BME280;62749;51.982;5.916;2023-06-05T02:36:32;102044.28;;;12.22;75.56
74329;BME280;62749;51.982;5.916;2023-06-05T02:39:04;102039.59;;;12.30;75.03
74329;BME280;62749;51.982;5.916;2023-06-05T02:41:33;102051.13;;;12.29;75.15
74329;BME280;62749;51.982;5.916;2023-06-05T02:44:03;102046.09;;;12.20;75.59
74329;BME280;62749;51.982;5.916;2023-06-05T02:46:32;102042.38;;;12.25;75.41
74329;BME280;62749;51.982;5.916;2023-06-05T02:49:02;102035.00;;;12.07;75.97
74329;BME280;62749;51.982;5.916;2023-06-05T02:51:31;102050.53;;;12.19;75.52
74329;BME280;62749;51.982;5.916;2023-06-05T02:54:03;102042.19;;;12.02;76.14
74329;BME280;62749;51.982;5.916;2023-06-05T02:56:33;102036.63;;;12.11;75.95
74329;BME280;62749;51.982;5.916;2023-06-05T02:59:03;102034.63;;;12.19;75.45
74329;BME280;62749;51.982;5.916;2023-06-05T03:01:34;102031.50;;;12.05;76.02
74329;BME280;62749;51.982;5.916;2023-06-05T03:04:09;102024.63;;;11.99;76.21
74329;BME280;62749;51.982;5.916;2023-06-05T03:06:39;102028.81;;;12.06;76.03
74329;BME280;62749;51.982;5.916;2023-06-05T03:09:12;102025.25;;;12.07;76.17
74329;BME280;62749;51.982;5.916;2023-06-05T03:11:41;102033.00;;;12.13;75.81
74329;BME280;62749;51.982;5.916;2023-06-05T03:14:11;102025.63;;;11.93;76.22
74329;BME280;62749;51.982;5.916;2023-06-05T03:16:40;102027.47;;;11.90;76.49
74329;BME280;62749;51.982;5.916;2023-06-05T03:19:12;102028.44;;;11.87;76.59
74329;BME280;62749;51.982;5.916;2023-06-05T03:21:41;102022.22;;;11.88;76.67
74329;BME280;62749;51.982;5.916;2023-06-05T03:24:14;102022.22;;;11.88;76.55
74329;BME280;62749;51.982;5.916;2023-06-05T03:26:43;102013.72;;;11.75;77.07
74329;BME280;62749;51.982;5.916;2023-06-05T03:29:13;102028.50;;;11.84;77.03
74329;BME280;62749;51.982;5.916;2023-06-05T03:31:42;102018.81;;;11.83;76.63
74329;BME280;62749;51.982;5.916;2023-06-05T03:34:12;102026.03;;;11.78;77.14
74329;BME280;62749;51.982;5.916;2023-06-05T03:36:41;102018.66;;;11.89;76.89
74329;BME280;62749;51.982;5.916;2023-06-05T03:39:13;102011.75;;;11.84;76.60
74329;BME280;62749;51.982;5.916;2023-06-05T03:41:42;102018.81;;;11.85;76.86
74329;BME280;62749;51.982;5.916;2023-06-05T03:44:12;102018.03;;;11.81;76.26
74329;BME280;62749;51.982;5.916;2023-06-05T03:46:42;102020.25;;;11.63;77.48
74329;BME280;62749;51.982;5.916;2023-06-05T03:49:12;102004.63;;;11.54;77.82
74329;BME280;62749;51.982;5.916;2023-06-05T03:51:41;102012.47;;;11.57;77.97
74329;BME280;62749;51.982;5.916;2023-06-05T03:54:14;102013.59;;;11.48;78.22
74329;BME280;62749;51.982;5.916;2023-06-05T03:56:43;102016.97;;;11.54;78.23
74329;BME280;62749;51.982;5.916;2023-06-05T03:59:16;102017.19;;;11.46;78.23
74329;BME280;62749;51.982;5.916;2023-06-05T04:01:50;102014.00;;;11.33;78.64
74329;BME280;62749;51.982;5.916;2023-06-05T04:04:45;102015.22;;;11.19;79.41
74329;BME280;62749;51.982;5.916;2023-06-05T04:07:17;102021.09;;;11.31;79.14
74329;BME280;62749;51.982;5.916;2023-06-05T04:09:49;102027.53;;;11.55;78.40
74329;BME280;62749;51.982;5.916;2023-06-05T04:12:18;102016.78;;;11.61;77.75
74329;BME280;62749;51.982;5.916;2023-06-05T04:14:48;102020.88;;;11.73;77.24
74329;BME280;62749;51.982;5.916;2023-06-05T04:17:18;102025.03;;;11.82;77.00
74329;BME280;62749;51.982;5.916;2023-06-05T04:19:47;102013.84;;;11.72;76.91
74329;BME280;62749;51.982;5.916;2023-06-05T04:22:16;102020.06;;;11.71;76.86
74329;BME280;62749;51.982;5.916;2023-06-05T04:24:48;102024.22;;;11.47;78.04
74329;BME280;62749;51.982;5.916;2023-06-05T04:27:18;102029.75;;;11.38;78.38
74329;BME280;62749;51.982;5.916;2023-06-05T04:29:47;102029.66;;;11.41;78.81
74329;BME280;62749;51.982;5.916;2023-06-05T04:32:19;102032.34;;;11.39;78.48
74329;BME280;62749;51.982;5.916;2023-06-05T04:34:48;102031.50;;;11.37;78.61
74329;BME280;62749;51.982;5.916;2023-06-05T04:37:18;102034.84;;;11.44;78.42
74329;BME280;62749;51.982;5.916;2023-06-05T04:39:50;102027.75;;;11.46;78.34
74329;BME280;62749;51.982;5.916;2023-06-05T04:42:20;102035.03;;;11.38;78.56
74329;BME280;62749;51.982;5.916;2023-06-05T04:44:55;102042.34;;;11.62;78.06
74329;BME280;62749;51.982;5.916;2023-06-05T04:47:24;102032.50;;;11.68;77.40
74329;BME280;62749;51.982;5.916;2023-06-05T04:49:54;102038.72;;;11.66;77.37
74329;BME280;62749;51.982;5.916;2023-06-05T04:52:24;102032.50;;;11.68;77.44
74329;BME280;62749;51.982;5.916;2023-06-05T04:54:58;102031.56;;;11.69;77.65
74329;BME280;62749;51.982;5.916;2023-06-05T04:57:29;102028.13;;;11.65;77.44
74329;BME280;62749;51.982;5.916;2023-06-05T04:59:58;102035.63;;;11.82;77.14
74329;BME280;62749;51.982;5.916;2023-06-05T05:02:31;102045.28;;;11.85;76.85
74329;BME280;62749;51.982;5.916;2023-06-05T05:05:00;102039.44;;;11.72;77.17
74329;BME280;62749;51.982;5.916;2023-06-05T05:07:30;102034.44;;;11.61;77.82
74329;BME280;62749;51.982;5.916;2023-06-05T05:10:04;102042.84;;;11.77;77.81
74329;BME280;62749;51.982;5.916;2023-06-05T05:12:34;102039.34;;;11.75;77.21
74329;BME280;62749;51.982;5.916;2023-06-05T05:15:05;102037.50;;;11.78;77.30
74329;BME280;62749;51.982;5.916;2023-06-05T05:17:35;102039.78;;;11.91;77.01
74329;BME280;62749;51.982;5.916;2023-06-05T05:20:05;102039.47;;;12.03;76.52
74329;BME280;62749;51.982;5.916;2023-06-05T05:22:35;102042.19;;;12.02;76.31
74329;BME280;62749;51.982;5.916;2023-06-05T05:25:08;102043.53;;;12.17;75.75
74329;BME280;62749;51.982;5.916;2023-06-05T05:27:37;102044.97;;;12.27;75.76
74329;BME280;62749;51.982;5.916;2023-06-05T05:30:08;102046.63;;;12.33;75.26
74329;BME280;62749;51.982;5.916;2023-06-05T05:32:37;102048.06;;;12.43;74.56
74329;BME280;62749;51.982;5.916;2023-06-05T05:35:08;102050.28;;;12.57;74.54
74329;BME280;62749;51.982;5.916;2023-06-05T05:37:37;102049.38;;;12.58;73.95
74329;BME280;62749;51.982;5.916;2023-06-05T05:40:11;102047.34;;;12.66;73.82
74329;BME280;62749;51.982;5.916;2023-06-05T05:42:41;102047.88;;;12.49;74.43
74329;BME280;62749;51.982;5.916;2023-06-05T05:45:10;102052.81;;;12.62;74.28
74329;BME280;62749;51.982;5.916;2023-06-05T05:47:39;102050.16;;;12.62;74.05
74329;BME280;62749;51.982;5.916;2023-06-05T05:50:10;102051.06;;;12.61;74.14
74329;BME280;62749;51.982;5.916;2023-06-05T05:53:03;102058.47;;;12.79;73.76
74329;BME280;62749;51.982;5.916;2023-06-05T05:55:35;102054.81;;;12.83;73.42
74329;BME280;62749;51.982;5.916;2023-06-05T05:58:04;102044.91;;;12.88;73.04
74329;BME280;62749;51.982;5.916;2023-06-05T06:00:34;102039.56;;;12.90;72.98
74329;BME280;62749;51.982;5.916;2023-06-05T06:03:03;102048.91;;;13.02;72.62
74329;BME280;62749;51.982;5.916;2023-06-05T06:05:33;102051.50;;;12.75;72.92
74329;BME280;62749;51.982;5.916;2023-06-05T06:08:03;102056.50;;;12.86;73.19
74329;BME280;62749;51.982;5.916;2023-06-05T06:10:35;102056.16;;;12.97;72.58
74329;BME280;62749;51.982;5.916;2023-06-05T06:13:05;102056.44;;;12.87;72.90
74329;BME280;62749;51.982;5.916;2023-06-05T06:15:35;102046.25;;;13.02;72.12
74329;BME280;62749;51.982;5.916;2023-06-05T06:18:06;102061.69;;;13.17;71.94
74329;BME280;62749;51.982;5.916;2023-06-05T06:20:35;102056.72;;;13.33;71.36
74329;BME280;62749;51.982;5.916;2023-06-05T06:23:05;102059.72;;;13.51;70.99
74329;BME280;62749;51.982;5.916;2023-06-05T06:25:37;102054.56;;;13.46;71.10
74329;BME280;62749;51.982;5.916;2023-06-05T06:28:06;102060.94;;;13.68;70.16
74329;BME280;62749;51.982;5.916;2023-06-05T06:30:56;102056.03;;;13.80;69.13
74329;BME280;62749;51.982;5.916;2023-06-05T06:33:26;102050.31;;;13.68;69.19
74329;BME280;62749;51.982;5.916;2023-06-05T06:35:55;102052.19;;;13.64;69.40
74329;BME280;62749;51.982;5.916;2023-06-05T06:38:25;102047.97;;;13.84;69.38
74329;BME280;62749;51.982;5.916;2023-06-05T06:40:59;102051.63;;;13.79;68.89
74329;BME280;62749;51.982;5.916;2023-06-05T06:43:28;102046.34;;;13.79;68.65
74329;BME280;62749;51.982;5.916;2023-06-05T06:45:58;102050.34;;;13.91;68.37
74329;BME280;62749;51.982;5.916;2023-06-05T06:48:27;102047.91;;;13.85;68.15
74329;BME280;62749;51.982;5.916;2023-06-05T06:50:56;102055.25;;;14.02;68.16
74329;BME280;62749;51.982;5.916;2023-06-05T06:53:26;102057.88;;;14.27;67.53
74329;BME280;62749;51.982;5.916;2023-06-05T06:55:55;102060.00;;;14.41;66.57
74329;BME280;62749;51.982;5.916;2023-06-05T06:58:27;102058.78;;;14.50;66.36
74329;BME280;62749;51.982;5.916;2023-06-05T07:00:56;102059.59;;;14.52;65.99
74329;BME280;62749;51.982;5.916;2023-06-05T07:03:26;102054.06;;;14.58;66.29
74329;BME280;62749;51.982;5.916;2023-06-05T07:05:56;102061.53;;;14.72;66.03
74329;BME280;62749;51.982;5.916;2023-06-05T07:08:25;102057.19;;;14.92;65.87
74329;BME280;62749;51.982;5.916;2023-06-05T07:10:54;102064.44;;;15.11;65.13
74329;BME280;62749;51.982;5.916;2023-06-05T07:13:26;102064.03;;;15.20;64.27
74329;BME280;62749;51.982;5.916;2023-06-05T07:15:56;102058.53;;;15.25;63.57
74329;BME280;62749;51.982;5.916;2023-06-05T07:21:29;102064.09;;;15.41;63.01
74329;BME280;62749;51.982;5.916;2023-06-05T07:24:05;102067.69;;;15.40;63.32
74329;BME280;62749;51.982;5.916;2023-06-05T07:26:35;102072.50;;;15.52;63.16
74329;BME280;62749;51.982;5.916;2023-06-05T07:29:07;102068.63;;;15.39;62.88
74329;BME280;62749;51.982;5.916;2023-06-05T07:31:36;102068.13;;;15.29;63.54
74329;BME280;62749;51.982;5.916;2023-06-05T07:34:06;102069.88;;;15.50;63.10
74329;BME280;62749;51.982;5.916;2023-06-05T07:36:35;102076.16;;;15.70;62.80
74329;BME280;62749;51.982;5.916;2023-06-05T07:39:05;102072.03;;;15.84;62.59
74329;BME280;62749;51.982;5.916;2023-06-05T07:41:35;102074.22;;;15.94;62.85
74329;BME280;62749;51.982;5.916;2023-06-05T07:44:07;102065.75;;;16.05;62.49
74329;BME280;62749;51.982;5.916;2023-06-05T07:46:37;102061.25;;;16.07;62.32
74329;BME280;62749;51.982;5.916;2023-06-05T07:49:08;102068.75;;;16.18;62.24
74329;BME280;62749;51.982;5.916;2023-06-05T07:51:38;102072.19;;;16.20;61.86
74329;BME280;62749;51.982;5.916;2023-06-05T07:54:09;102070.91;;;16.29;62.18
74329;BME280;62749;51.982;5.916;2023-06-05T07:56:39;102074.69;;;16.44;61.37
74329;BME280;62749;51.982;5.916;2023-06-05T07:59:12;102066.13;;;16.56;61.29
74329;BME280;62749;51.982;5.916;2023-06-05T08:02:03;102071.16;;;16.63;61.35
74329;BME280;62749;51.982;5.916;2023-06-05T08:04:33;102068.69;;;16.77;60.86
74329;BME280;62749;51.982;5.916;2023-06-05T08:07:02;102062.31;;;16.80;60.54
74329;BME280;62749;51.982;5.916;2023-06-05T08:09:32;102057.56;;;16.86;60.22
74329;BME280;62749;51.982;5.916;2023-06-05T08:12:03;102053.56;;;16.97;60.12
74329;BME280;62749;51.982;5.916;2023-06-05T08:14:35;102059.84;;;17.13;59.74
74329;BME280;62749;51.982;5.916;2023-06-05T08:17:05;102051.66;;;16.99;59.92
74329;BME280;62749;51.982;5.916;2023-06-05T08:19:34;102057.00;;;16.99;60.00
74329;BME280;62749;51.982;5.916;2023-06-05T08:22:03;102052.06;;;17.09;60.24
74329;BME280;62749;51.982;5.916;2023-06-05T08:24:33;102059.19;;;17.27;59.83
74329;BME280;62749;51.982;5.916;2023-06-05T08:27:02;102056.44;;;17.46;58.97
74329;BME280;62749;51.982;5.916;2023-06-05T08:29:36;102049.22;;;17.48;59.00
74329;BME280;62749;51.982;5.916;2023-06-05T08:32:05;102048.94;;;17.71;59.01
74329;BME280;62749;51.982;5.916;2023-06-05T08:34:35;102041.41;;;17.79;58.52
74329;BME280;62749;51.982;5.916;2023-06-05T08:37:04;102030.75;;;17.95;57.91
74329;BME280;62749;51.982;5.916;2023-06-05T08:39:34;102024.59;;;18.11;57.45
74329;BME280;62749;51.982;5.916;2023-06-05T08:42:04;102039.88;;;18.24;57.42
74329;BME280;62749;51.982;5.916;2023-06-05T08:44:37;102040.50;;;18.14;57.25
74329;BME280;62749;51.982;5.916;2023-06-05T08:47:08;102036.00;;;18.30;56.68
74329;BME280;62749;51.982;5.916;2023-06-05T08:49:41;102029.13;;;18.42;57.04
74329;BME280;62749;51.982;5.916;2023-06-05T08:52:11;102031.19;;;18.53;56.07
74329;BME280;62749;51.982;5.916;2023-06-05T08:54:41;102029.13;;;18.42;56.38
74329;BME280;62749;51.982;5.916;2023-06-05T08:57:10;102027.41;;;18.57;56.21
74329;BME280;62749;51.982;5.916;2023-06-05T08:59:45;102028.00;;;18.62;56.57
74329;BME280;62749;51.982;5.916;2023-06-05T09:02:15;102025.66;;;18.88;55.83
74329;BME280;62749;51.982;5.916;2023-06-05T09:04:45;102027.03;;;18.95;55.41
74329;BME280;62749;51.982;5.916;2023-06-05T09:07:16;102024.63;;;18.75;56.37
74329;BME280;62749;51.982;5.916;2023-06-05T09:09:45;102015.97;;;18.85;55.74
74329;BME280;62749;51.982;5.916;2023-06-05T09:12:15;102026.31;;;19.08;55.53
74329;BME280;62749;51.982;5.916;2023-06-05T09:14:47;102018.00;;;19.28;55.48
74329;BME280;62749;51.982;5.916;2023-06-05T09:17:17;102017.94;;;19.44;54.03
74329;BME280;62749;51.982;5.916;2023-06-05T09:19:47;102013.38;;;19.61;54.07
74329;BME280;62749;51.982;5.916;2023-06-05T09:22:32;102021.50;;;19.74;53.13
74329;BME280;62749;51.982;5.916;2023-06-05T09:25:02;102015.38;;;19.72;53.23
74329;BME280;62749;51.982;5.916;2023-06-05T09:27:32;102014.41;;;19.73;53.80
74329;BME280;62749;51.982;5.916;2023-06-05T09:30:07;102009.97;;;19.88;53.22
74329;BME280;62749;51.982;5.916;2023-06-05T09:32:37;102006.53;;;20.00;53.17
74329;BME280;62749;51.982;5.916;2023-06-05T09:35:07;102011.78;;;20.02;51.90
74329;BME280;62749;51.982;5.916;2023-06-05T09:37:39;102000.75;;;20.06;52.75
74329;BME280;62749;51.982;5.916;2023-06-05T09:40:13;102004.66;;;20.30;51.91
74329;BME280;62749;51.982;5.916;2023-06-05T09:42:43;102011.47;;;20.21;52.07
74329;BME280;62749;51.982;5.916;2023-06-05T09:45:15;102003.53;;;20.19;52.02
74329;BME280;62749;51.982;5.916;2023-06-05T09:47:44;102008.84;;;20.34;52.08
74329;BME280;62749;51.982;5.916;2023-06-05T09:50:21;102004.78;;;20.56;52.19
74329;BME280;62749;51.982;5.916;2023-06-05T09:52:51;102002.38;;;20.65;50.73
74329;BME280;62749;51.982;5.916;2023-06-05T09:55:23;101997.63;;;20.83;50.51
74329;BME280;62749;51.982;5.916;2023-06-05T09:57:57;102000.22;;;20.85;49.87
74329;BME280;62749;51.982;5.916;2023-06-05T10:00:32;102001.56;;;21.05;50.27
74329;BME280;62749;51.982;5.916;2023-06-05T10:03:08;101999.88;;;21.30;49.75
74329;BME280;62749;51.982;5.916;2023-06-05T10:05:43;102004.09;;;21.34;49.02
74329;BME280;62749;51.982;5.916;2023-06-05T10:08:13;102001.28;;;21.36;48.64
74329;BME280;62749;51.982;5.916;2023-06-05T10:10:44;101989.53;;;21.11;49.66
74329;BME280;62749;51.982;5.916;2023-06-05T10:13:14;101994.50;;;21.30;49.01
74329;BME280;62749;51.982;5.916;2023-06-05T10:15:46;101997.31;;;21.41;48.98
74329;BME280;62749;51.982;5.916;2023-06-05T10:18:16;101988.91;;;21.46;49.32
74329;BME280;62749;51.982;5.916;2023-06-05T10:20:47;101986.38;;;21.70;48.76
74329;BME280;62749;51.982;5.916;2023-06-05T10:23:40;101974.72;;;21.96;48.05
74329;BME280;62749;51.982;5.916;2023-06-05T10:26:25;101989.41;;;22.16;48.00
74329;BME280;62749;51.982;5.916;2023-06-05T10:29:15;101978.78;;;22.14;47.09
74329;BME280;62749;51.982;5.916;2023-06-05T10:31:59;101972.78;;;22.11;47.07
74329;BME280;62749;51.982;5.916;2023-06-05T10:34:44;101983.41;;;22.25;47.46
74329;BME280;62749;51.982;5.916;2023-06-05T10:37:39;101988.31;;;22.44;46.38
74329;BME280;62749;51.982;5.916;2023-06-05T10:40:10;101984.31;;;22.50;45.70
74329;BME280;62749;51.982;5.916;2023-06-05T10:42:40;101979.13;;;22.34;46.34
74329;BME280;62749;51.982;5.916;2023-06-05T10:45:10;101976.94;;;22.15;46.35
74329;BME280;62749;51.982;5.916;2023-06-05T10:48:00;101970.78;;;22.26;46.34
74329;BME280;62749;51.982;5.916;2023-06-05T10:50:29;101982.28;;;22.65;45.79
74329;BME280;62749;51.982;5.916;2023-06-05T10:53:00;101977.88;;;22.88;45.15
74329;BME280;62749;51.982;5.916;2023-06-05T10:55:41;101966.38;;;24.79;41.45
74329;BME280;62749;51.982;5.916;2023-06-05T10:58:13;101974.69;;;26.13;37.92
74329;BME280;62749;51.982;5.916;2023-06-05T11:03:58;101978.66;;;27.66;35.19
74329;BME280;62749;51.982;5.916;2023-06-05T11:06:28;101981.19;;;28.33;33.80
74329;BME280;62749;51.982;5.916;2023-06-05T11:09:11;101978.88;;;28.57;33.91
74329;BME280;62749;51.982;5.916;2023-06-05T11:11:58;101976.75;;;29.05;32.37
74329;BME280;62749;51.982;5.916;2023-06-05T11:14:44;101980.94;;;28.73;32.78
74329;BME280;62749;51.982;5.916;2023-06-05T11:17:27;101975.91;;;28.14;33.26
74329;BME280;62749;51.982;5.916;2023-06-05T11:19:59;101970.34;;;28.88;32.33
74329;BME280;62749;51.982;5.916;2023-06-05T11:22:30;101974.47;;;29.36;31.65
74329;BME280;62749;51.982;5.916;2023-06-05T11:25:26;101967.09;;;29.55;31.19
74329;BME280;62749;51.982;5.916;2023-06-05T11:28:00;101971.75;;;28.92;31.68
74329;BME280;62749;51.982;5.916;2023-06-05T11:30:33;101965.69;;;29.51;31.29
74329;BME280;62749;51.982;5.916;2023-06-05T11:33:13;101948.13;;;29.72;30.91
74329;BME280;62749;51.982;5.916;2023-06-05T11:35:47;101955.06;;;30.00;30.10
74329;BME280;62749;51.982;5.916;2023-06-05T11:38:20;101954.59;;;30.13;30.12
74329;BME280;62749;51.982;5.916;2023-06-05T11:40:51;101959.72;;;30.17;29.47
74329;BME280;62749;51.982;5.916;2023-06-05T11:43:21;101955.91;;;30.01;29.36
74329;BME280;62749;51.982;5.916;2023-06-05T11:45:53;101950.28;;;29.94;30.23
74329;BME280;62749;51.982;5.916;2023-06-05T11:48:23;101946.78;;;30.35;29.44
74329;BME280;62749;51.982;5.916;2023-06-05T11:51:01;101950.19;;;30.21;29.86
74329;BME280;62749;51.982;5.916;2023-06-05T11:53:33;101943.59;;;30.56;29.88
74329;BME280;62749;51.982;5.916;2023-06-05T11:56:12;101946.16;;;30.91;28.92
74329;BME280;62749;51.982;5.916;2023-06-05T11:58:43;101946.91;;;30.09;29.81
74329;BME280;62749;51.982;5.916;2023-06-05T12:01:15;101946.22;;;30.07;29.65
74329;BME280;62749;51.982;5.916;2023-06-05T12:03:49;101936.44;;;29.53;29.84
74329;BME280;62749;51.982;5.916;2023-06-05T12:06:31;101945.47;;;29.88;30.15
74329;BME280;62749;51.982;5.916;2023-06-05T12:09:07;101942.84;;;30.29;29.25
74329;BME280;62749;51.982;5.916;2023-06-05T12:11:38;101939.63;;;29.75;30.58
74329;BME280;62749;51.982;5.916;2023-06-05T12:14:10;101943.28;;;27.86;31.47
74329;BME280;62749;51.982;5.916;2023-06-05T12:16:41;101937.69;;;27.60;32.38
74329;BME280;62749;51.982;5.916;2023-06-05T12:19:13;101935.59;;;27.53;32.82
74329;BME280;62749;51.982;5.916;2023-06-05T12:21:47;101933.78;;;28.00;31.77
74329;BME280;62749;51.982;5.916;2023-06-05T12:24:24;101936.72;;;28.16;31.98
74329;BME280;62749;51.982;5.916;2023-06-05T12:26:55;101930.06;;;28.01;32.07
74329;BME280;62749;51.982;5.916;2023-06-05T12:29:26;101934.28;;;27.85;32.82
74329;BME280;62749;51.982;5.916;2023-06-05T12:31:58;101936.00;;;27.86;31.85
74329;BME280;62749;51.982;5.916;2023-06-05T12:34:41;101925.28;;;27.85;31.91
74329;BME280;62749;51.982;5.916;2023-06-05T12:37:21;101917.13;;;27.57;31.46
74329;BME280;62749;51.982;5.916;2023-06-05T12:39:54;101910.50;;;27.97;31.47
74329;BME280;62749;51.982;5.916;2023-06-05T12:42:24;101921.00;;;27.82;32.50
74329;BME280;62749;51.982;5.916;2023-06-05T12:44:54;101919.47;;;27.42;33.30
74329;BME280;62749;51.982;5.916;2023-06-05T12:47:23;101911.19;;;27.81;32.20
74329;BME280;62749;51.982;5.916;2023-06-05T12:49:52;101908.44;;;28.09;31.39
74329;BME280;62749;51.982;5.916;2023-06-05T12:52:25;101913.97;;;28.17;30.48
74329;BME280;62749;51.982;5.916;2023-06-05T12:54:55;101902.88;;;27.83;31.67
74329;BME280;62749;51.982;5.916;2023-06-05T12:57:25;101899.69;;;27.87;32.18
74329;BME280;62749;51.982;5.916;2023-06-05T12:59:55;101905.66;;;28.37;30.79
74329;BME280;62749;51.982;5.916;2023-06-05T13:02:24;101901.16;;;28.10;31.57
74329;BME280;62749;51.982;5.916;2023-06-05T13:04:54;101886.84;;;27.62;31.58
74329;BME280;62749;51.982;5.916;2023-06-05T13:07:26;101898.28;;;27.83;31.24
74329;BME280;62749;51.982;5.916;2023-06-05T13:09:56;101884.00;;;28.09;30.57
74329;BME280;62749;51.982;5.916;2023-06-05T13:12:26;101886.22;;;28.68;30.17
74329;BME280;62749;51.982;5.916;2023-06-05T13:14:55;101885.56;;;29.19;29.82
74329;BME280;62749;51.982;5.916;2023-06-05T13:17:26;101878.13;;;29.21;29.54
74329;BME280;62749;51.982;5.916;2023-06-05T13:19:59;101886.91;;;29.15;30.26